Orlando, FL (32807)

3:02 PM EDT en Junio 25, 2017 (GMT -0400)
Azalea Park | | Change Station

Alt 104 ft 28.54 °N, 81.30 °W | Updated 4 seconds ago

Mostly Cloudy
Muy nublado
93.5 ° F
Sensación térmica 105 ° F
N
2.2
Viento Variable Viento desde Este
Gusts 6.6 mph

Hoy
Alta -- | Baja -- ° F
--% Posibilidad de precipitaciones
Ayer
Alta -- | Baja -- ° F
Precip. -- pul
Presión 30.09 pul
Visibilidad 10.0 Millas
Nubes Muy nublado 11000 ft
Índice de calor 105 ° F
Punto de rocío 75 ° F
Humedad 55%
Precipitaciones 0.05 pul
Espesor de la nieve No disponible.
6:29 AM 8:26 PM
Creciente, 4% visible
METAR KORL 251853Z 20005KT 10SM BKN110 33/21 A3008 RMK AO2 SLP188 T03280211
Presión 30.09 pul
Visibilidad 10.0 Millas
Nubes Muy nublado 11000 ft
Índice de calor 105 ° F
Punto de rocío 75 ° F
Humedad 55%
Precipitaciones 0.05 pul
Espesor de la nieve No disponible.
6:29 AM 8:26 PM
Creciente, 4% visible
METAR KORL 251853Z 20005KT 10SM BKN110 33/21 A3008 RMK AO2 SLP188 T03280211

Get Severe Weather Alerts

Thanks for signing up!

Be on the lookout for a verification email in your inbox.

You'll start receiving the daily forecast at 6 AM.

×

10-Day Weather Forecast

Almanac

Astronomía

Jun. 25, 2017 Salida Puesta
Hora real
Crepúsculo civil
Crepúsculo náutico
Crepúsculo astronómico
Luna
Horas de luz
Horas de luz
Tomorrow will be .
, % of the Moon is Illuminated

Extremos de hoy

Máximos del estado Bajos del estado

Community

WunderPhotos

Category 6

Welcome to Category 6. This is the collective home for Weather Underground's featured writeups by Dr. Jeff Masters (right), Bob Henson (left), Chris Burt, and other regular contributors.

Nearby

Calidad del aire

  Calidad del aire Índice AQ Contaminante
Not available.

Grosos de nieve

Estación Profundido Altura

Actividad de terremotos

Ciudad Distance Mag. Tiempo y dato
Magnitud mínima muestra es 2,5.

Temperaturas de aguas costeras

Lugar Temperatura

Stations

Estaciones meteorológicas cercanas

Ubicación de la estación Temp. Vientos helados Punto de rocío Humedad Viento Precip. Alt Actualizado Tipo
                   

Watches & Warnings

There are currently no watches in effect.